Aktualne dane pomiarowe

Uwaga, wersja testowa! Automatyczne pobieranie danych za pomocą narzędzi lub skryptów to umożliwiających jest zabronione.

Dane meteo z obszaru Polski uzyskane na podstawie depesz SYNOP pobieranych co godzinę z NWS. Najedź myszką na symbol przedstawiony w tabeli, aby uzyskać informacje co do jego znaczenia. Prosimy pamiętać, że to testowa wersja strony, która jeszcze nie jest ukończona. Stworzono również jest krótki FAQ dotyczący korzystania z tej podstrony Anomalie temperatury w chwili obecnej odniesione są do okresu referencyjnego 1951-2016. Okres ten będzie później zmieniony na 1981-2010. Kliknij ikonę aby pobrać plik CSV. Kliknij ikonę aby wygenerować mapę synoptyczną dla danego terminu.

Wybierz Datę:    

        

Włodawa (12497)

Dane terminowe dla wybranej stacji. Kliknij datę, aby otrzymać dane z tego terminu dla wszystkich stacji.

TemperaturaZachmurzenieWiatrCiśnienieOpadyPogoda
 Data t td wb tx tn tg rh  Nt Nl Cl Cm Ch ws wd g1 g2 wx mslp ppp ch 24h 12h t ww ww w1 w2  
2019-07-20 23:00:00 15.3 14.2 14.5--- 938.0wx-2wx--21018.0 996.6 0.6---wx22--
2019-07-20 22:00:00 16.1 14.3 14.8--- 8910.0wx-1wx--11017.8 996.5 0.3----22----
2019-07-20 21:00:00 17.6 14.9 15.7--- 8410.0wx-2wx---1017.5 996.3 0.4---------
2019-07-20 20:00:00 18.9 14.8 16.1--- 7720.0wx-1wx--11017.1 996.0 0.5---------
2019-07-20 19:00:00 20.5 15.3 17.0--- 7220.0wxwxwxwx2wx--21017.2 996.2 0.2---------
2019-07-20 18:00:00 21.1 15.9 17.6 26.5 19.0- 7220.0wxwxwxwxwx1wx--11016.9 995.9 0.1- 0.312wx-w1w2--
2019-07-20 17:00:00 21.5 15.6 17.6--- 6920.0wxwxwxwxwx1wx--11016.4 995.5 -0.5---wx-w1--
2019-07-20 16:00:00 21.1 15.6 17.4--- 7120.0wxwxwxwx4wx--41017.0 996.0 -0.1---wx-w1--
2019-07-20 15:00:00 21.3 17.7 18.8--- 8020.0wxwxwxwx3wx---1016.7 995.8 -0.3---wx-w1--
2019-07-20 14:00:00 22.7 15.8 18.1--- 6520.0wxwxwx4wx--41016.8 996.0 -0.3---wx-w1--
2019-07-20 13:00:00 24.8 13.0 17.5--- 4820.0wxwxwx3wx--31016.8 996.1 -0.4---wx---
2019-07-20 12:00:00 25.2 13.1 17.7--- 4720.0wxwxwxwxwx3wx-831016.8 996.1 -0.5--6wx-w1--
2019-07-20 11:00:00 24.9 14.1 18.1--- 5120.0wxwxwxwxwx2wx--21017.0 996.3 0.0---------
2019-07-20 10:00:00 23.8 15.6 18.4--- 6020.0wxwxwxwxwx3wx--31017.3 996.5 0.5---------
2019-07-20 09:00:00 22.0 15.4 17.6--- 6620.0wxwxwxwx3wx--31017.5 996.6 1.0---wx-w1--
2019-07-20 08:00:00 20.5 15.3 17.0--- 7220.0wxwxwxwx2wx--21017.3 996.3 1.2---wx---
2019-07-20 07:00:00 20.1 14.7 16.5--- 7120.0wxwxwxwx3wx--31017.0 996.0 1.1---------
2019-07-20 06:00:00 19.0 14.5 16.0 23.8 15.7 14 7520.0wxwxwxwx2wx--21016.7 995.6 0.9--12wx-- 12.7
2019-07-20 05:00:00 19.3 13.9 15.7--- 7120.0wxwxwxwx2wx---1016.2 995.1 0.8---------
2019-07-20 04:00:00 17.7 13.4 14.8--- 7620.0wxwxwxwx3wx--31016.1 994.9 0.9----22----
2019-07-20 03:00:00 16.2 12.7 13.9--- 8020.0wxwxwxwx2wx--21016.0 994.7 0.7----22----
2019-07-20 02:00:00 16.0 13.1 14.0--- 8320.0wxwxwxwx2wx--21015.6 994.3 0.4----22----
2019-07-20 01:00:00 15.9 12.8 13.8--- 8220.0wxwxwx2wx--21015.3 994.0 0.1----22----
2019-07-20 00:00:00 16.0 14.2 14.7--- 8918.0wxwxwx2wx--21015.3 994.0 0.1- 0.06-22----
2019-07-19 23:00:00 16.2 14.2 14.8--- 8820.0wxwxwxwx1wx---1015.2 993.9 0.3---------
2019-07-19 22:00:00 16.2 13.3 14.2--- 8320.0wxwxwxwx1wx--11015.2 993.9 0.6----22----
2019-07-19 21:00:00 16.5 13.2 14.3--- 8120.0wx-wxwx1wx--11015.2 993.9 1.0----22----
2019-07-19 20:00:00 18.1 13.6 15.1--- 7519.0wx-wxwx1wx--11014.7 993.6 0.7---------
2019-07-19 19:00:00 19.6 13.3 15.5--- 6720.0wx-wxwx1wx--11014.3 993.3 0.5---------
2019-07-19 18:00:00 23.8 10.1 15.7 26.6 18.9- 4220.0wxwxwxwxwx1wx--11013.6 992.9 0.1- 0.012------
2019-07-19 17:00:00 25.0 9.7 16.1--- 3820.0wxwxwxwx1wx--11013.5 992.9 -0.2---------
2019-07-19 16:00:00 26.1 7.2 15.4--- 3020.0wxwxwxwx1wx--11013.3 992.8 -0.4---------
2019-07-19 15:00:00 26.3 7.8 15.8--- 3120.0wxwxwx1wx--11013.3 992.8 -0.8---------
2019-07-19 14:00:00 26.3 9.6 16.5--- 3520.0wxwxwx2wx--21013.6 993.1 -0.6---------
2019-07-19 13:00:00 25.1 8.1 15.4--- 3420.0wxwxwx2wx--21013.8 993.2 -0.7---------
2019-07-19 12:00:00 24.3 8.3 15.2--- 3620.0wxwxwx3wx-1031014.3 993.6 -0.6- 0.06------
2019-07-19 11:00:00 24.6 9.3 15.7--- 3820.0wxwxwx4wx-1041014.4 993.7 -0.7---------
2019-07-19 10:00:00 25.4 10.0 16.3--- 3820.0wxwxwx4wx101041014.5 993.9 -0.6---------
2019-07-19 09:00:00 23.1 9.8 15.3--- 4320.0wxwxwx3wx--31015.0 994.2 -0.1---------
2019-07-19 08:00:00 22.5 9.6 15.0--- 4420.0wxwxwxwx3wx--31015.2 994.4 0.3---------
2019-07-19 07:00:00 21.2 11.8 15.4--- 5520.0wxwxwx3wx--31015.4 994.5 0.5----22----
2019-07-19 06:00:00 18.9 12.2 14.7 19.9 9.6 8 6520.0wxwxwx2wx--21015.4 994.3 0.3- 0.012-22--- 11.5
2019-07-19 05:00:00 15.2 13.0 13.7--- 8720.0wx-wx0---01015.5 994.1 0.4----22----
2019-07-19 04:00:00 12.3 11.5 11.7--- 9516.0wx-wxwx2wx--21015.6 994.0 0.4----22----
2019-07-19 03:00:00 10.1 9.6 9.7--- 9710.0wx-wxwx2wx--21015.7 994.0 0.4----22----
2019-07-19 02:00:00 10.1 9.2 9.4--- 9411.0wx-wxwx2wx--21015.4 993.7 0.2----22----
2019-07-19 01:00:00 10.8 10.2 10.3--- 9620.0wx-wx2wx--21015.3 993.6 0.4----22----
2019-07-19 00:00:00 10.5 9.7 9.9--- 9515.0wx-2wx--21015.3 993.6 0.6- 0.06-22----
1.1 ms

 

Print Friendly, PDF & Email